sensor_id;sensor_type;location;lat;lon;timestamp;P1;durP1;ratioP1;P2;durP2;ratioP2
48203;SDS011;33994;50.998;5.864;2023-07-30T00:02:59;9.45;;;2.13;;
48203;SDS011;33994;50.998;5.864;2023-07-30T00:06:02;5.88;;;2.10;;
48203;SDS011;33994;50.998;5.864;2023-07-30T00:09:07;6.45;;;2.40;;
48203;SDS011;33994;50.998;5.864;2023-07-30T00:12:10;10.27;;;2.67;;
48203;SDS011;33994;50.998;5.864;2023-07-30T00:15:13;7.82;;;2.97;;
48203;SDS011;33994;50.998;5.864;2023-07-30T00:18:16;9.82;;;2.35;;
48203;SDS011;33994;50.998;5.864;2023-07-30T00:21:20;6.60;;;2.20;;
48203;SDS011;33994;50.998;5.864;2023-07-30T00:24:24;7.05;;;2.17;;
48203;SDS011;33994;50.998;5.864;2023-07-30T00:27:28;8.02;;;2.35;;
48203;SDS011;33994;50.998;5.864;2023-07-30T00:30:31;8.23;;;2.08;;
48203;SDS011;33994;50.998;5.864;2023-07-30T00:33:34;5.72;;;2.13;;
48203;SDS011;33994;50.998;5.864;2023-07-30T00:36:37;9.93;;;2.42;;
48203;SDS011;33994;50.998;5.864;2023-07-30T00:39:42;7.00;;;2.50;;
48203;SDS011;33994;50.998;5.864;2023-07-30T00:42:45;6.32;;;2.05;;
48203;SDS011;33994;50.998;5.864;2023-07-30T00:45:48;8.95;;;2.55;;
48203;SDS011;33994;50.998;5.864;2023-07-30T00:48:52;7.72;;;2.70;;
48203;SDS011;33994;50.998;5.864;2023-07-30T00:51:55;10.55;;;2.92;;
48203;SDS011;33994;50.998;5.864;2023-07-30T00:55:00;7.72;;;2.35;;
48203;SDS011;33994;50.998;5.864;2023-07-30T00:58:05;8.20;;;2.40;;
48203;SDS011;33994;50.998;5.864;2023-07-30T01:01:08;9.63;;;3.35;;
48203;SDS011;33994;50.998;5.864;2023-07-30T01:04:11;9.32;;;2.53;;
48203;SDS011;33994;50.998;5.864;2023-07-30T01:07:14;8.70;;;2.60;;
48203;SDS011;33994;50.998;5.864;2023-07-30T01:10:19;13.23;;;2.53;;
48203;SDS011;33994;50.998;5.864;2023-07-30T01:13:22;10.30;;;3.70;;
48203;SDS011;33994;50.998;5.864;2023-07-30T01:16:25;9.52;;;2.92;;
48203;SDS011;33994;50.998;5.864;2023-07-30T01:19:29;6.88;;;2.70;;
48203;SDS011;33994;50.998;5.864;2023-07-30T01:22:33;10.82;;;2.55;;
48203;SDS011;33994;50.998;5.864;2023-07-30T01:25:37;7.40;;;2.63;;
48203;SDS011;33994;50.998;5.864;2023-07-30T01:28:42;7.85;;;2.55;;
48203;SDS011;33994;50.998;5.864;2023-07-30T01:31:51;9.65;;;2.50;;
48203;SDS011;33994;50.998;5.864;2023-07-30T01:34:58;9.73;;;3.08;;
48203;SDS011;33994;50.998;5.864;2023-07-30T01:38:04;11.43;;;3.28;;
48203;SDS011;33994;50.998;5.864;2023-07-30T01:41:10;11.30;;;3.33;;
48203;SDS011;33994;50.998;5.864;2023-07-30T01:44:13;7.32;;;2.47;;
48203;SDS011;33994;50.998;5.864;2023-07-30T01:47:17;5.82;;;2.30;;
48203;SDS011;33994;50.998;5.864;2023-07-30T01:50:20;11.30;;;2.88;;
48203;SDS011;33994;50.998;5.864;2023-07-30T01:53:24;8.85;;;2.42;;
48203;SDS011;33994;50.998;5.864;2023-07-30T01:56:27;8.80;;;2.67;;
48203;SDS011;33994;50.998;5.864;2023-07-30T01:59:30;9.05;;;3.13;;
48203;SDS011;33994;50.998;5.864;2023-07-30T02:02:34;7.82;;;2.58;;
48203;SDS011;33994;50.998;5.864;2023-07-30T02:05:37;6.75;;;2.90;;
48203;SDS011;33994;50.998;5.864;2023-07-30T02:08:42;16.35;;;3.42;;
48203;SDS011;33994;50.998;5.864;2023-07-30T02:11:45;10.32;;;2.80;;
48203;SDS011;33994;50.998;5.864;2023-07-30T02:14:48;13.98;;;2.60;;
48203;SDS011;33994;50.998;5.864;2023-07-30T02:17:51;11.45;;;2.90;;
48203;SDS011;33994;50.998;5.864;2023-07-30T02:20:54;8.25;;;2.55;;
48203;SDS011;33994;50.998;5.864;2023-07-30T02:23:59;7.03;;;2.65;;
48203;SDS011;33994;50.998;5.864;2023-07-30T02:27:03;10.75;;;3.13;;
48203;SDS011;33994;50.998;5.864;2023-07-30T02:30:06;10.57;;;2.72;;
48203;SDS011;33994;50.998;5.864;2023-07-30T02:33:10;11.45;;;3.03;;
48203;SDS011;33994;50.998;5.864;2023-07-30T02:36:13;10.65;;;2.33;;
48203;SDS011;33994;50.998;5.864;2023-07-30T02:39:18;14.45;;;3.05;;
48203;SDS011;33994;50.998;5.864;2023-07-30T02:42:21;11.68;;;2.60;;
48203;SDS011;33994;50.998;5.864;2023-07-30T02:45:25;10.30;;;2.50;;
48203;SDS011;33994;50.998;5.864;2023-07-30T02:48:28;7.65;;;2.17;;
48203;SDS011;33994;50.998;5.864;2023-07-30T02:51:31;15.65;;;2.80;;
48203;SDS011;33994;50.998;5.864;2023-07-30T02:54:36;11.93;;;2.60;;
48203;SDS011;33994;50.998;5.864;2023-07-30T02:57:39;12.10;;;2.47;;
48203;SDS011;33994;50.998;5.864;2023-07-30T03:00:42;11.18;;;2.50;;
48203;SDS011;33994;50.998;5.864;2023-07-30T03:03:45;14.85;;;2.92;;
48203;SDS011;33994;50.998;5.864;2023-07-30T03:06:48;12.48;;;2.53;;
48203;SDS011;33994;50.998;5.864;2023-07-30T03:09:53;10.07;;;2.95;;
48203;SDS011;33994;50.998;5.864;2023-07-30T03:12:56;6.35;;;2.45;;
48203;SDS011;33994;50.998;5.864;2023-07-30T03:15:59;11.15;;;2.85;;
48203;SDS011;33994;50.998;5.864;2023-07-30T03:19:02;11.23;;;3.13;;
48203;SDS011;33994;50.998;5.864;2023-07-30T03:22:05;15.75;;;2.80;;
48203;SDS011;33994;50.998;5.864;2023-07-30T03:25:09;11.10;;;2.75;;
48203;SDS011;33994;50.998;5.864;2023-07-30T03:28:12;11.13;;;2.72;;
48203;SDS011;33994;50.998;5.864;2023-07-30T03:31:16;11.32;;;2.47;;
48203;SDS011;33994;50.998;5.864;2023-07-30T03:34:19;7.13;;;2.17;;
48203;SDS011;33994;50.998;5.864;2023-07-30T03:37:22;7.13;;;1.75;;
48203;SDS011;33994;50.998;5.864;2023-07-30T03:40:27;4.93;;;1.90;;
48203;SDS011;33994;50.998;5.864;2023-07-30T03:43:31;10.70;;;2.38;;
48203;SDS011;33994;50.998;5.864;2023-07-30T03:46:34;7.57;;;1.73;;
48203;SDS011;33994;50.998;5.864;2023-07-30T03:49:37;9.85;;;2.63;;
48203;SDS011;33994;50.998;5.864;2023-07-30T03:52:40;9.35;;;1.83;;
48203;SDS011;33994;50.998;5.864;2023-07-30T03:55:45;7.82;;;1.58;;
48203;SDS011;33994;50.998;5.864;2023-07-30T03:58:48;10.80;;;2.10;;
48203;SDS011;33994;50.998;5.864;2023-07-30T04:01:51;7.60;;;1.67;;
48203;SDS011;33994;50.998;5.864;2023-07-30T04:04:55;13.13;;;2.63;;
48203;SDS011;33994;50.998;5.864;2023-07-30T04:07:58;5.97;;;1.35;;
48203;SDS011;33994;50.998;5.864;2023-07-30T04:11:03;8.75;;;1.60;;
48203;SDS011;33994;50.998;5.864;2023-07-30T04:14:06;9.65;;;1.55;;
48203;SDS011;33994;50.998;5.864;2023-07-30T04:17:09;10.40;;;2.33;;
48203;SDS011;33994;50.998;5.864;2023-07-30T04:20:12;4.47;;;1.48;;
48203;SDS011;33994;50.998;5.864;2023-07-30T04:23:15;4.95;;;1.38;;
48203;SDS011;33994;50.998;5.864;2023-07-30T04:26:20;6.35;;;1.58;;
48203;SDS011;33994;50.998;5.864;2023-07-30T04:29:23;8.65;;;1.58;;
48203;SDS011;33994;50.998;5.864;2023-07-30T04:32:26;5.25;;;1.33;;
48203;SDS011;33994;50.998;5.864;2023-07-30T04:35:29;4.88;;;1.50;;
48203;SDS011;33994;50.998;5.864;2023-07-30T04:38:32;7.32;;;1.55;;
48203;SDS011;33994;50.998;5.864;2023-07-30T04:41:37;6.20;;;1.52;;
48203;SDS011;33994;50.998;5.864;2023-07-30T04:44:40;5.68;;;1.25;;
48203;SDS011;33994;50.998;5.864;2023-07-30T04:47:43;4.18;;;1.30;;
48203;SDS011;33994;50.998;5.864;2023-07-30T04:50:47;5.65;;;1.65;;
48203;SDS011;33994;50.998;5.864;2023-07-30T04:53:50;6.72;;;1.52;;
48203;SDS011;33994;50.998;5.864;2023-07-30T04:56:54;6.43;;;1.55;;
48203;SDS011;33994;50.998;5.864;2023-07-30T04:59:57;6.13;;;1.40;;
48203;SDS011;33994;50.998;5.864;2023-07-30T05:03:00;8.32;;;2.42;;
48203;SDS011;33994;50.998;5.864;2023-07-30T05:06:04;9.05;;;2.00;;
48203;SDS011;33994;50.998;5.864;2023-07-30T05:09:07;6.55;;;1.50;;
48203;SDS011;33994;50.998;5.864;2023-07-30T05:12:11;6.93;;;1.85;;
48203;SDS011;33994;50.998;5.864;2023-07-30T05:15:14;4.50;;;1.67;;
48203;SDS011;33994;50.998;5.864;2023-07-30T05:18:18;6.43;;;1.67;;
48203;SDS011;33994;50.998;5.864;2023-07-30T05:21:21;5.95;;;1.50;;
48203;SDS011;33994;50.998;5.864;2023-07-30T05:24:24;6.13;;;1.48;;
48203;SDS011;33994;50.998;5.864;2023-07-30T05:27:29;5.63;;;1.40;;
48203;SDS011;33994;50.998;5.864;2023-07-30T05:30:32;5.68;;;1.50;;
48203;SDS011;33994;50.998;5.864;2023-07-30T05:33:35;9.25;;;1.63;;
48203;SDS011;33994;50.998;5.864;2023-07-30T05:36:38;5.13;;;1.60;;
48203;SDS011;33994;50.998;5.864;2023-07-30T05:39:41;10.05;;;2.00;;
48203;SDS011;33994;50.998;5.864;2023-07-30T05:42:46;8.02;;;1.80;;
48203;SDS011;33994;50.998;5.864;2023-07-30T05:45:49;7.93;;;1.70;;
48203;SDS011;33994;50.998;5.864;2023-07-30T05:48:52;5.90;;;1.33;;
48203;SDS011;33994;50.998;5.864;2023-07-30T05:51:55;11.75;;;2.22;;
48203;SDS011;33994;50.998;5.864;2023-07-30T05:54:58;13.02;;;2.30;;
48203;SDS011;33994;50.998;5.864;2023-07-30T05:58:05;7.47;;;1.30;;
48203;SDS011;33994;50.998;5.864;2023-07-30T06:01:08;11.45;;;1.98;;
48203;SDS011;33994;50.998;5.864;2023-07-30T06:04:11;7.90;;;2.03;;
48203;SDS011;33994;50.998;5.864;2023-07-30T06:07:14;12.73;;;2.22;;
48203;SDS011;33994;50.998;5.864;2023-07-30T06:10:18;8.27;;;2.25;;
48203;SDS011;33994;50.998;5.864;2023-07-30T06:13:22;9.52;;;2.42;;
48203;SDS011;33994;50.998;5.864;2023-07-30T06:16:25;10.32;;;2.53;;
48203;SDS011;33994;50.998;5.864;2023-07-30T06:19:28;10.80;;;2.40;;
48203;SDS011;33994;50.998;5.864;2023-07-30T06:22:31;8.77;;;1.98;;
48203;SDS011;33994;50.998;5.864;2023-07-30T06:25:35;11.43;;;2.60;;
48203;SDS011;33994;50.998;5.864;2023-07-30T06:28:40;9.65;;;2.10;;
48203;SDS011;33994;50.998;5.864;2023-07-30T06:31:43;18.13;;;2.78;;
48203;SDS011;33994;50.998;5.864;2023-07-30T06:34:46;14.57;;;2.47;;
48203;SDS011;33994;50.998;5.864;2023-07-30T06:37:50;9.65;;;2.53;;
48203;SDS011;33994;50.998;5.864;2023-07-30T06:40:53;14.50;;;2.58;;
48203;SDS011;33994;50.998;5.864;2023-07-30T06:43:57;17.30;;;3.08;;
48203;SDS011;33994;50.998;5.864;2023-07-30T06:47:00;15.10;;;2.55;;
48203;SDS011;33994;50.998;5.864;2023-07-30T06:50:04;17.48;;;3.25;;
48203;SDS011;33994;50.998;5.864;2023-07-30T06:53:08;12.77;;;2.90;;
48203;SDS011;33994;50.998;5.864;2023-07-30T06:56:11;17.33;;;2.92;;
48203;SDS011;33994;50.998;5.864;2023-07-30T06:59:16;14.82;;;4.30;;
48203;SDS011;33994;50.998;5.864;2023-07-30T07:02:19;11.88;;;2.40;;
48203;SDS011;33994;50.998;5.864;2023-07-30T07:05:22;10.23;;;2.47;;
48203;SDS011;33994;50.998;5.864;2023-07-30T07:08:25;11.13;;;2.42;;
48203;SDS011;33994;50.998;5.864;2023-07-30T07:11:29;12.23;;;2.55;;
48203;SDS011;33994;50.998;5.864;2023-07-30T07:14:33;13.68;;;2.67;;
48203;SDS011;33994;50.998;5.864;2023-07-30T07:17:36;21.20;;;2.90;;
48203;SDS011;33994;50.998;5.864;2023-07-30T07:20:40;20.55;;;3.28;;
48203;SDS011;33994;50.998;5.864;2023-07-30T07:23:43;10.35;;;2.75;;
48203;SDS011;33994;50.998;5.864;2023-07-30T07:26:46;12.30;;;2.90;;
48203;SDS011;33994;50.998;5.864;2023-07-30T07:29:51;14.65;;;2.45;;
48203;SDS011;33994;50.998;5.864;2023-07-30T07:32:54;12.82;;;2.80;;
48203;SDS011;33994;50.998;5.864;2023-07-30T07:36:04;15.27;;;2.67;;
48203;SDS011;33994;50.998;5.864;2023-07-30T07:39:07;19.73;;;3.10;;
48203;SDS011;33994;50.998;5.864;2023-07-30T07:42:11;18.90;;;3.10;;
48203;SDS011;33994;50.998;5.864;2023-07-30T07:45:15;19.48;;;3.67;;
48203;SDS011;33994;50.998;5.864;2023-07-30T07:48:18;12.05;;;2.53;;
48203;SDS011;33994;50.998;5.864;2023-07-30T07:51:22;16.60;;;3.03;;
48203;SDS011;33994;50.998;5.864;2023-07-30T07:54:25;10.88;;;2.63;;
48203;SDS011;33994;50.998;5.864;2023-07-30T07:57:28;14.43;;;3.20;;
48203;SDS011;33994;50.998;5.864;2023-07-30T08:00:33;13.85;;;2.90;;
48203;SDS011;33994;50.998;5.864;2023-07-30T08:03:36;15.25;;;2.85;;
48203;SDS011;33994;50.998;5.864;2023-07-30T08:06:39;11.23;;;2.60;;
48203;SDS011;33994;50.998;5.864;2023-07-30T08:09:43;16.08;;;2.70;;
48203;SDS011;33994;50.998;5.864;2023-07-30T08:12:46;14.25;;;2.72;;
48203;SDS011;33994;50.998;5.864;2023-07-30T08:15:51;17.58;;;3.05;;
48203;SDS011;33994;50.998;5.864;2023-07-30T08:18:54;10.38;;;2.45;;
48203;SDS011;33994;50.998;5.864;2023-07-30T08:21:57;15.65;;;2.80;;
48203;SDS011;33994;50.998;5.864;2023-07-30T08:25:01;17.48;;;2.53;;
48203;SDS011;33994;50.998;5.864;2023-07-30T08:28:05;14.10;;;2.83;;
48203;SDS011;33994;50.998;5.864;2023-07-30T08:31:09;14.65;;;2.55;;
48203;SDS011;33994;50.998;5.864;2023-07-30T08:34:13;9.38;;;2.22;;
48203;SDS011;33994;50.998;5.864;2023-07-30T08:37:16;13.38;;;2.75;;
48203;SDS011;33994;50.998;5.864;2023-07-30T08:40:20;13.77;;;2.58;;
48203;SDS011;33994;50.998;5.864;2023-07-30T08:43:24;10.57;;;2.20;;
48203;SDS011;33994;50.998;5.864;2023-07-30T08:46:28;12.13;;;3.25;;
48203;SDS011;33994;50.998;5.864;2023-07-30T08:49:31;13.25;;;3.40;;
48203;SDS011;33994;50.998;5.864;2023-07-30T08:52:35;17.75;;;3.72;;
48203;SDS011;33994;50.998;5.864;2023-07-30T08:55:39;14.48;;;2.30;;
48203;SDS011;33994;50.998;5.864;2023-07-30T08:58:44;12.90;;;3.05;;
48203;SDS011;33994;50.998;5.864;2023-07-30T09:01:49;11.13;;;2.35;;
48203;SDS011;33994;50.998;5.864;2023-07-30T09:04:56;8.57;;;1.98;;
48203;SDS011;33994;50.998;5.864;2023-07-30T09:08:02;8.77;;;2.00;;
48203;SDS011;33994;50.998;5.864;2023-07-30T09:11:08;11.75;;;2.45;;
48203;SDS011;33994;50.998;5.864;2023-07-30T09:14:11;11.70;;;2.05;;
48203;SDS011;33994;50.998;5.864;2023-07-30T09:17:17;16.15;;;3.13;;
48203;SDS011;33994;50.998;5.864;2023-07-30T09:20:21;10.77;;;4.05;;
48203;SDS011;33994;50.998;5.864;2023-07-30T09:23:24;10.82;;;2.63;;
48203;SDS011;33994;50.998;5.864;2023-07-30T09:26:27;9.93;;;2.35;;
48203;SDS011;33994;50.998;5.864;2023-07-30T09:29:30;6.97;;;1.65;;
48203;SDS011;33994;50.998;5.864;2023-07-30T09:32:35;13.68;;;2.47;;
48203;SDS011;33994;50.998;5.864;2023-07-30T09:35:38;10.05;;;2.30;;
48203;SDS011;33994;50.998;5.864;2023-07-30T09:38:42;10.60;;;2.13;;
48203;SDS011;33994;50.998;5.864;2023-07-30T09:41:46;8.85;;;1.70;;
48203;SDS011;33994;50.998;5.864;2023-07-30T09:44:49;12.55;;;2.03;;
48203;SDS011;33994;50.998;5.864;2023-07-30T09:47:54;7.85;;;2.10;;
48203;SDS011;33994;50.998;5.864;2023-07-30T09:50:58;8.07;;;2.05;;
48203;SDS011;33994;50.998;5.864;2023-07-30T09:54:02;10.38;;;1.73;;
48203;SDS011;33994;50.998;5.864;2023-07-30T09:57:06;7.95;;;1.90;;
48203;SDS011;33994;50.998;5.864;2023-07-30T10:00:09;10.55;;;2.50;;
48203;SDS011;33994;50.998;5.864;2023-07-30T10:03:14;9.35;;;1.67;;
48203;SDS011;33994;50.998;5.864;2023-07-30T10:06:18;10.48;;;2.45;;
48203;SDS011;33994;50.998;5.864;2023-07-30T10:09:21;9.20;;;1.77;;
48203;SDS011;33994;50.998;5.864;2023-07-30T10:12:29;10.93;;;1.98;;
48203;SDS011;33994;50.998;5.864;2023-07-30T10:15:34;10.18;;;1.77;;
48203;SDS011;33994;50.998;5.864;2023-07-30T10:18:39;6.90;;;2.65;;
48203;SDS011;33994;50.998;5.864;2023-07-30T10:21:42;7.55;;;1.73;;
48203;SDS011;33994;50.998;5.864;2023-07-30T10:24:55;7.82;;;1.80;;
48203;SDS011;33994;50.998;5.864;2023-07-30T10:27:59;9.70;;;2.17;;
48203;SDS011;33994;50.998;5.864;2023-07-30T10:31:04;8.23;;;1.52;;
48203;SDS011;33994;50.998;5.864;2023-07-30T10:34:10;9.45;;;1.85;;
48203;SDS011;33994;50.998;5.864;2023-07-30T10:37:17;9.30;;;2.00;;
48203;SDS011;33994;50.998;5.864;2023-07-30T10:40:21;14.73;;;2.53;;
48203;SDS011;33994;50.998;5.864;2023-07-30T10:43:26;8.60;;;2.20;;
48203;SDS011;33994;50.998;5.864;2023-07-30T10:46:30;8.80;;;1.90;;
48203;SDS011;33994;50.998;5.864;2023-07-30T10:49:36;10.38;;;2.63;;
48203;SDS011;33994;50.998;5.864;2023-07-30T10:52:40;11.97;;;2.63;;
48203;SDS011;33994;50.998;5.864;2023-07-30T10:55:44;12.30;;;2.33;;
48203;SDS011;33994;50.998;5.864;2023-07-30T10:58:49;11.18;;;2.10;;
48203;SDS011;33994;50.998;5.864;2023-07-30T11:01:54;9.32;;;1.75;;
48203;SDS011;33994;50.998;5.864;2023-07-30T11:04:59;12.05;;;1.60;;
48203;SDS011;33994;50.998;5.864;2023-07-30T11:08:14;6.97;;;1.60;;
48203;SDS011;33994;50.998;5.864;2023-07-30T11:11:17;7.13;;;2.22;;
48203;SDS011;33994;50.998;5.864;2023-07-30T11:14:21;7.68;;;1.30;;
48203;SDS011;33994;50.998;5.864;2023-07-30T11:17:25;8.63;;;1.40;;
48203;SDS011;33994;50.998;5.864;2023-07-30T11:20:29;8.43;;;2.50;;
48203;SDS011;33994;50.998;5.864;2023-07-30T11:23:33;7.60;;;1.95;;
48203;SDS011;33994;50.998;5.864;2023-07-30T11:26:37;6.95;;;1.52;;
48203;SDS011;33994;50.998;5.864;2023-07-30T11:29:40;8.52;;;2.00;;
48203;SDS011;33994;50.998;5.864;2023-07-30T11:32:43;8.70;;;1.85;;
48203;SDS011;33994;50.998;5.864;2023-07-30T11:35:48;10.32;;;1.90;;
48203;SDS011;33994;50.998;5.864;2023-07-30T11:38:51;8.73;;;1.65;;
48203;SDS011;33994;50.998;5.864;2023-07-30T11:41:55;6.72;;;1.80;;
48203;SDS011;33994;50.998;5.864;2023-07-30T11:44:58;5.03;;;1.40;;
48203;SDS011;33994;50.998;5.864;2023-07-30T11:48:07;8.13;;;1.70;;
48203;SDS011;33994;50.998;5.864;2023-07-30T11:51:22;8.43;;;1.95;;
48203;SDS011;33994;50.998;5.864;2023-07-30T11:54:26;6.53;;;2.08;;
48203;SDS011;33994;50.998;5.864;2023-07-30T11:57:33;9.50;;;1.50;;
48203;SDS011;33994;50.998;5.864;2023-07-30T12:00:37;5.75;;;1.08;;
48203;SDS011;33994;50.998;5.864;2023-07-30T12:03:40;7.53;;;1.70;;
48203;SDS011;33994;50.998;5.864;2023-07-30T12:06:45;7.55;;;1.45;;
48203;SDS011;33994;50.998;5.864;2023-07-30T12:09:49;5.78;;;1.50;;
48203;SDS011;33994;50.998;5.864;2023-07-30T12:12:52;8.57;;;2.17;;
48203;SDS011;33994;50.998;5.864;2023-07-30T12:15:56;10.23;;;1.45;;
48203;SDS011;33994;50.998;5.864;2023-07-30T12:18:59;8.68;;;1.95;;
48203;SDS011;33994;50.998;5.864;2023-07-30T12:22:04;10.85;;;2.10;;
48203;SDS011;33994;50.998;5.864;2023-07-30T12:25:07;8.45;;;2.00;;
48203;SDS011;33994;50.998;5.864;2023-07-30T12:28:11;8.85;;;1.90;;
48203;SDS011;33994;50.998;5.864;2023-07-30T12:31:15;8.00;;;1.90;;
48203;SDS011;33994;50.998;5.864;2023-07-30T12:34:18;7.13;;;1.90;;
48203;SDS011;33994;50.998;5.864;2023-07-30T12:37:24;8.05;;;2.00;;
48203;SDS011;33994;50.998;5.864;2023-07-30T12:40:27;8.07;;;1.73;;
48203;SDS011;33994;50.998;5.864;2023-07-30T12:43:30;7.10;;;1.90;;
48203;SDS011;33994;50.998;5.864;2023-07-30T12:46:33;6.68;;;1.70;;
48203;SDS011;33994;50.998;5.864;2023-07-30T12:49:36;9.30;;;2.05;;
48203;SDS011;33994;50.998;5.864;2023-07-30T12:52:41;9.43;;;2.30;;
48203;SDS011;33994;50.998;5.864;2023-07-30T12:55:45;5.38;;;1.65;;
48203;SDS011;33994;50.998;5.864;2023-07-30T12:58:48;8.13;;;2.03;;
48203;SDS011;33994;50.998;5.864;2023-07-30T13:01:51;6.43;;;1.80;;
48203;SDS011;33994;50.998;5.864;2023-07-30T13:04:54;7.35;;;2.33;;
48203;SDS011;33994;50.998;5.864;2023-07-30T13:07:59;8.48;;;1.20;;
48203;SDS011;33994;50.998;5.864;2023-07-30T13:11:02;11.38;;;2.17;;
48203;SDS011;33994;50.998;5.864;2023-07-30T13:14:05;5.43;;;1.52;;
48203;SDS011;33994;50.998;5.864;2023-07-30T13:17:08;6.43;;;1.40;;
48203;SDS011;33994;50.998;5.864;2023-07-30T13:20:12;6.38;;;1.60;;
48203;SDS011;33994;50.998;5.864;2023-07-30T13:23:16;5.75;;;1.33;;
48203;SDS011;33994;50.998;5.864;2023-07-30T13:26:19;5.82;;;1.42;;
48203;SDS011;33994;50.998;5.864;2023-07-30T13:29:23;6.25;;;1.55;;
48203;SDS011;33994;50.998;5.864;2023-07-30T13:32:26;8.05;;;1.33;;
48203;SDS011;33994;50.998;5.864;2023-07-30T13:35:29;6.22;;;1.60;;
48203;SDS011;33994;50.998;5.864;2023-07-30T13:38:34;7.55;;;1.67;;
48203;SDS011;33994;50.998;5.864;2023-07-30T13:41:37;8.75;;;1.60;;
48203;SDS011;33994;50.998;5.864;2023-07-30T13:44:40;6.15;;;1.48;;
48203;SDS011;33994;50.998;5.864;2023-07-30T13:47:43;4.85;;;1.10;;
48203;SDS011;33994;50.998;5.864;2023-07-30T13:50:46;5.30;;;1.30;;
48203;SDS011;33994;50.998;5.864;2023-07-30T13:53:51;6.53;;;1.30;;
48203;SDS011;33994;50.998;5.864;2023-07-30T13:56:54;5.15;;;1.25;;
48203;SDS011;33994;50.998;5.864;2023-07-30T13:59:57;6.07;;;1.27;;
48203;SDS011;33994;50.998;5.864;2023-07-30T14:03:00;8.75;;;2.55;;
48203;SDS011;33994;50.998;5.864;2023-07-30T14:06:03;6.00;;;1.75;;
48203;SDS011;33994;50.998;5.864;2023-07-30T14:09:08;4.20;;;1.40;;
48203;SDS011;33994;50.998;5.864;2023-07-30T14:12:11;5.72;;;1.40;;
48203;SDS011;33994;50.998;5.864;2023-07-30T14:15:14;6.53;;;1.45;;
48203;SDS011;33994;50.998;5.864;2023-07-30T14:18:17;3.70;;;1.10;;
48203;SDS011;33994;50.998;5.864;2023-07-30T14:21:21;6.95;;;1.35;;
48203;SDS011;33994;50.998;5.864;2023-07-30T14:24:25;6.93;;;2.00;;
48203;SDS011;33994;50.998;5.864;2023-07-30T14:27:29;6.85;;;1.25;;
48203;SDS011;33994;50.998;5.864;2023-07-30T14:30:32;5.43;;;1.48;;
48203;SDS011;33994;50.998;5.864;2023-07-30T14:33:35;5.97;;;1.42;;
48203;SDS011;33994;50.998;5.864;2023-07-30T14:36:38;10.05;;;2.50;;
48203;SDS011;33994;50.998;5.864;2023-07-30T14:39:43;7.68;;;1.67;;
48203;SDS011;33994;50.998;5.864;2023-07-30T14:42:46;17.75;;;2.00;;
48203;SDS011;33994;50.998;5.864;2023-07-30T14:45:50;9.80;;;1.40;;
48203;SDS011;33994;50.998;5.864;2023-07-30T14:48:53;8.35;;;1.38;;
48203;SDS011;33994;50.998;5.864;2023-07-30T14:51:56;6.50;;;1.45;;
48203;SDS011;33994;50.998;5.864;2023-07-30T14:55:01;5.75;;;1.77;;
48203;SDS011;33994;50.998;5.864;2023-07-30T14:58:04;6.28;;;1.42;;
48203;SDS011;33994;50.998;5.864;2023-07-30T15:01:07;4.53;;;1.42;;
48203;SDS011;33994;50.998;5.864;2023-07-30T15:04:11;5.95;;;1.45;;
48203;SDS011;33994;50.998;5.864;2023-07-30T15:07:14;6.18;;;1.75;;
48203;SDS011;33994;50.998;5.864;2023-07-30T15:10:18;6.10;;;1.60;;
48203;SDS011;33994;50.998;5.864;2023-07-30T15:13:22;3.78;;;1.35;;
48203;SDS011;33994;50.998;5.864;2023-07-30T15:16:26;5.18;;;1.50;;
48203;SDS011;33994;50.998;5.864;2023-07-30T15:19:29;7.35;;;1.60;;
48203;SDS011;33994;50.998;5.864;2023-07-30T15:22:32;6.00;;;2.60;;
48203;SDS011;33994;50.998;5.864;2023-07-30T15:25:36;7.68;;;2.00;;
48203;SDS011;33994;50.998;5.864;2023-07-30T15:28:40;5.35;;;1.30;;
48203;SDS011;33994;50.998;5.864;2023-07-30T15:31:43;5.20;;;1.20;;
48203;SDS011;33994;50.998;5.864;2023-07-30T15:34:46;4.68;;;1.27;;
48203;SDS011;33994;50.998;5.864;2023-07-30T15:37:49;8.38;;;1.88;;
48203;SDS011;33994;50.998;5.864;2023-07-30T15:40:54;8.05;;;1.85;;
48203;SDS011;33994;50.998;5.864;2023-07-30T15:43:57;8.70;;;1.80;;
48203;SDS011;33994;50.998;5.864;2023-07-30T15:47:00;6.63;;;1.67;;
48203;SDS011;33994;50.998;5.864;2023-07-30T15:50:04;6.30;;;1.48;;
48203;SDS011;33994;50.998;5.864;2023-07-30T15:53:08;9.00;;;2.20;;
48203;SDS011;33994;50.998;5.864;2023-07-30T15:56:12;6.68;;;1.80;;
48203;SDS011;33994;50.998;5.864;2023-07-30T15:59:15;9.07;;;1.80;;
48203;SDS011;33994;50.998;5.864;2023-07-30T16:02:19;7.45;;;2.03;;
48203;SDS011;33994;50.998;5.864;2023-07-30T16:05:22;7.82;;;1.63;;
48203;SDS011;33994;50.998;5.864;2023-07-30T16:08:25;7.90;;;1.67;;
48203;SDS011;33994;50.998;5.864;2023-07-30T16:11:29;7.97;;;2.38;;
48203;SDS011;33994;50.998;5.864;2023-07-30T16:14:32;6.82;;;1.65;;
48203;SDS011;33994;50.998;5.864;2023-07-30T16:17:36;6.43;;;1.73;;
48203;SDS011;33994;50.998;5.864;2023-07-30T16:20:39;7.50;;;2.03;;
48203;SDS011;33994;50.998;5.864;2023-07-30T16:23:42;7.75;;;1.98;;
48203;SDS011;33994;50.998;5.864;2023-07-30T16:26:46;6.88;;;1.70;;
48203;SDS011;33994;50.998;5.864;2023-07-30T16:29:50;7.32;;;1.73;;
48203;SDS011;33994;50.998;5.864;2023-07-30T16:32:53;6.78;;;1.90;;
48203;SDS011;33994;50.998;5.864;2023-07-30T16:35:56;4.47;;;1.70;;
48203;SDS011;33994;50.998;5.864;2023-07-30T16:38:59;5.43;;;1.50;;
48203;SDS011;33994;50.998;5.864;2023-07-30T16:42:04;7.45;;;1.90;;
48203;SDS011;33994;50.998;5.864;2023-07-30T16:45:07;6.97;;;1.60;;
48203;SDS011;33994;50.998;5.864;2023-07-30T16:48:11;7.78;;;1.98;;
48203;SDS011;33994;50.998;5.864;2023-07-30T16:51:14;6.38;;;1.77;;
48203;SDS011;33994;50.998;5.864;2023-07-30T16:54:17;5.47;;;1.70;;
48203;SDS011;33994;50.998;5.864;2023-07-30T16:57:22;5.88;;;1.95;;
48203;SDS011;33994;50.998;5.864;2023-07-30T17:00:25;6.75;;;1.98;;
48203;SDS011;33994;50.998;5.864;2023-07-30T17:03:29;6.45;;;1.98;;
48203;SDS011;33994;50.998;5.864;2023-07-30T17:06:32;12.20;;;1.92;;
48203;SDS011;33994;50.998;5.864;2023-07-30T17:09:35;10.10;;;2.17;;
48203;SDS011;33994;50.998;5.864;2023-07-30T17:12:40;8.25;;;2.45;;
48203;SDS011;33994;50.998;5.864;2023-07-30T17:15:43;6.50;;;1.95;;
48203;SDS011;33994;50.998;5.864;2023-07-30T17:18:46;5.03;;;1.77;;
48203;SDS011;33994;50.998;5.864;2023-07-30T17:21:49;7.60;;;3.00;;
48203;SDS011;33994;50.998;5.864;2023-07-30T17:24:52;6.22;;;2.17;;
48203;SDS011;33994;50.998;5.864;2023-07-30T17:27:57;5.50;;;2.55;;
48203;SDS011;33994;50.998;5.864;2023-07-30T17:31:00;10.38;;;2.30;;
48203;SDS011;33994;50.998;5.864;2023-07-30T17:34:03;8.85;;;2.92;;
48203;SDS011;33994;50.998;5.864;2023-07-30T17:37:06;8.68;;;3.40;;
48203;SDS011;33994;50.998;5.864;2023-07-30T17:40:10;8.57;;;2.92;;
48203;SDS011;33994;50.998;5.864;2023-07-30T17:43:15;9.23;;;3.05;;
48203;SDS011;33994;50.998;5.864;2023-07-30T17:46:18;7.90;;;3.63;;
48203;SDS011;33994;50.998;5.864;2023-07-30T17:49:21;9.45;;;3.22;;
48203;SDS011;33994;50.998;5.864;2023-07-30T17:52:24;11.77;;;3.53;;
48203;SDS011;33994;50.998;5.864;2023-07-30T17:55:27;8.48;;;2.72;;
48203;SDS011;33994;50.998;5.864;2023-07-30T17:58:32;10.88;;;2.65;;
48203;SDS011;33994;50.998;5.864;2023-07-30T18:01:35;8.20;;;2.63;;
48203;SDS011;33994;50.998;5.864;2023-07-30T18:04:38;9.63;;;3.03;;
48203;SDS011;33994;50.998;5.864;2023-07-30T18:07:42;7.43;;;2.53;;
48203;SDS011;33994;50.998;5.864;2023-07-30T18:10:45;7.40;;;2.75;;
48203;SDS011;33994;50.998;5.864;2023-07-30T18:13:49;6.63;;;2.63;;
48203;SDS011;33994;50.998;5.864;2023-07-30T18:16:54;10.60;;;3.20;;
48203;SDS011;33994;50.998;5.864;2023-07-30T18:19:57;6.38;;;2.20;;
48203;SDS011;33994;50.998;5.864;2023-07-30T18:23:00;6.13;;;1.90;;